Todd, North Carolina
Current Conditions -  °F | °C
As of 5:15 AM on Friday 19 Dec 2014 (Local Time) from KTNB Reporting Station
Overcast Overcast  
Wind Chill: 32°   Ceiling: 3100
Heat Index: 32°   Visibility: 10mi
Dew Point: 21°   Wind: 3mph
Humidity: 63%   Direction: 280°W
Pressure: 30.07"   Gusts: NA
Location:  36.31°N, 81.6°W
Report Text: KTNB 191015Z AUTO 28003KT 10SM BKN031 OVC035 00/M06 A3007 RMK AO2 T00021061
Loading
Personal Weather Stations






























Interactive Weather Map New forecast layout! Learn more

10-Day Weather Forecast

Advertisements
Track Severe Weather on mobile